Perdizes, Brazil
Current Conditions -  °F | °C
As of 3:00 PM on Wednesday 26 Nov 2014 (Local Time) from SBUR Reporting Station
Rain Showers Rain Showers  
Wind Chill: 82°   Ceiling: 2500
Heat Index: 85°   Visibility: 6mi
Dew Point: 66°   Wind: 15mph
Humidity: 58%   Direction: 310°NW
Pressure: 29.85"   Gusts: NA
Location:  19.35°S, 47.29°W
Report Text: SBUR 261700Z 31013KT 9999 VCSH BKN025 FEW040TCU 28/19 Q1011
Loading
Personal Weather Stations






























Interactive Weather Map New forecast layout! Learn more

10-Day Weather Forecast

Advertisements
Track Severe Weather on mobile